sensor_id;sensor_type;location;lat;lon;timestamp;P1;durP1;ratioP1;P2;durP2;ratioP2
6755;SDS011;3415;51.148;7.014;2023-05-10T00:01:50;17.37;;;8.30;;
6755;SDS011;3415;51.148;7.014;2023-05-10T00:04:17;15.20;;;8.07;;
6755;SDS011;3415;51.148;7.014;2023-05-10T00:06:43;14.87;;;7.20;;
6755;SDS011;3415;51.148;7.014;2023-05-10T00:09:10;14.03;;;7.37;;
6755;SDS011;3415;51.148;7.014;2023-05-10T00:11:37;16.10;;;7.07;;
6755;SDS011;3415;51.148;7.014;2023-05-10T00:14:04;15.63;;;7.43;;
6755;SDS011;3415;51.148;7.014;2023-05-10T00:16:32;13.70;;;6.53;;
6755;SDS011;3415;51.148;7.014;2023-05-10T00:18:59;14.07;;;7.03;;
6755;SDS011;3415;51.148;7.014;2023-05-10T00:21:26;17.80;;;8.50;;
6755;SDS011;3415;51.148;7.014;2023-05-10T00:23:53;14.30;;;7.17;;
6755;SDS011;3415;51.148;7.014;2023-05-10T00:26:20;21.07;;;6.97;;
6755;SDS011;3415;51.148;7.014;2023-05-10T00:28:47;17.00;;;8.37;;
6755;SDS011;3415;51.148;7.014;2023-05-10T00:31:14;16.03;;;7.90;;
6755;SDS011;3415;51.148;7.014;2023-05-10T00:33:42;17.30;;;7.00;;
6755;SDS011;3415;51.148;7.014;2023-05-10T00:36:08;17.37;;;7.37;;
6755;SDS011;3415;51.148;7.014;2023-05-10T00:38:35;16.07;;;8.47;;
6755;SDS011;3415;51.148;7.014;2023-05-10T00:41:03;16.37;;;8.83;;
6755;SDS011;3415;51.148;7.014;2023-05-10T00:43:30;21.50;;;7.63;;
6755;SDS011;3415;51.148;7.014;2023-05-10T00:45:56;17.53;;;8.03;;
6755;SDS011;3415;51.148;7.014;2023-05-10T00:48:23;18.37;;;8.63;;
6755;SDS011;3415;51.148;7.014;2023-05-10T00:50:52;20.30;;;8.53;;
6755;SDS011;3415;51.148;7.014;2023-05-10T00:53:19;19.90;;;8.07;;
6755;SDS011;3415;51.148;7.014;2023-05-10T00:55:46;17.13;;;7.57;;
6755;SDS011;3415;51.148;7.014;2023-05-10T00:58:13;19.60;;;9.53;;
6755;SDS011;3415;51.148;7.014;2023-05-10T01:00:41;16.53;;;9.23;;
6755;SDS011;3415;51.148;7.014;2023-05-10T01:03:09;17.37;;;8.00;;
6755;SDS011;3415;51.148;7.014;2023-05-10T01:05:36;14.67;;;7.27;;
6755;SDS011;3415;51.148;7.014;2023-05-10T01:08:05;19.73;;;8.93;;
6755;SDS011;3415;51.148;7.014;2023-05-10T01:10:33;19.57;;;8.70;;
6755;SDS011;3415;51.148;7.014;2023-05-10T01:13:00;18.50;;;8.80;;
6755;SDS011;3415;51.148;7.014;2023-05-10T01:15:28;13.77;;;7.73;;
6755;SDS011;3415;51.148;7.014;2023-05-10T01:17:55;15.43;;;7.73;;
6755;SDS011;3415;51.148;7.014;2023-05-10T01:20:22;16.63;;;8.30;;
6755;SDS011;3415;51.148;7.014;2023-05-10T01:23:03;21.53;;;9.33;;
6755;SDS011;3415;51.148;7.014;2023-05-10T01:25:59;20.60;;;7.90;;
6755;SDS011;3415;51.148;7.014;2023-05-10T01:34:54;18.70;;;8.27;;
6755;SDS011;3415;51.148;7.014;2023-05-10T01:37:29;19.80;;;8.70;;
6755;SDS011;3415;51.148;7.014;2023-05-10T01:40:06;19.67;;;10.30;;
6755;SDS011;3415;51.148;7.014;2023-05-10T01:42:40;15.03;;;7.20;;
6755;SDS011;3415;51.148;7.014;2023-05-10T01:45:14;19.13;;;9.07;;
6755;SDS011;3415;51.148;7.014;2023-05-10T01:47:49;16.70;;;8.10;;
6755;SDS011;3415;51.148;7.014;2023-05-10T01:50:22;16.53;;;8.40;;
6755;SDS011;3415;51.148;7.014;2023-05-10T01:52:54;13.47;;;6.60;;
6755;SDS011;3415;51.148;7.014;2023-05-10T01:55:24;17.10;;;6.07;;
6755;SDS011;3415;51.148;7.014;2023-05-10T01:57:55;13.80;;;6.50;;
6755;SDS011;3415;51.148;7.014;2023-05-10T02:00:27;8.80;;;5.80;;
6755;SDS011;3415;51.148;7.014;2023-05-10T02:02:57;10.73;;;5.20;;
6755;SDS011;3415;51.148;7.014;2023-05-10T02:05:27;7.20;;;4.67;;
6755;SDS011;3415;51.148;7.014;2023-05-10T02:07:57;10.37;;;4.87;;
6755;SDS011;3415;51.148;7.014;2023-05-10T02:10:26;10.23;;;5.77;;
6755;SDS011;3415;51.148;7.014;2023-05-10T02:12:54;8.73;;;5.13;;
6755;SDS011;3415;51.148;7.014;2023-05-10T02:15:24;8.37;;;4.93;;
6755;SDS011;3415;51.148;7.014;2023-05-10T02:17:52;11.20;;;5.30;;
6755;SDS011;3415;51.148;7.014;2023-05-10T02:20:23;13.27;;;5.63;;
6755;SDS011;3415;51.148;7.014;2023-05-10T02:22:52;8.33;;;5.60;;
6755;SDS011;3415;51.148;7.014;2023-05-10T02:25:21;10.30;;;5.73;;
6755;SDS011;3415;51.148;7.014;2023-05-10T02:27:49;10.13;;;6.10;;
6755;SDS011;3415;51.148;7.014;2023-05-10T02:30:17;14.43;;;5.87;;
6755;SDS011;3415;51.148;7.014;2023-05-10T02:32:45;14.60;;;6.40;;
6755;SDS011;3415;51.148;7.014;2023-05-10T02:35:13;11.20;;;5.90;;
6755;SDS011;3415;51.148;7.014;2023-05-10T02:37:42;11.50;;;6.90;;
6755;SDS011;3415;51.148;7.014;2023-05-10T02:40:11;8.70;;;6.00;;
6755;SDS011;3415;51.148;7.014;2023-05-10T02:42:39;17.13;;;6.17;;
6755;SDS011;3415;51.148;7.014;2023-05-10T02:45:10;13.30;;;6.33;;
6755;SDS011;3415;51.148;7.014;2023-05-10T02:47:39;9.93;;;5.80;;
6755;SDS011;3415;51.148;7.014;2023-05-10T02:50:06;11.90;;;6.03;;
6755;SDS011;3415;51.148;7.014;2023-05-10T02:52:36;17.27;;;7.40;;
6755;SDS011;3415;51.148;7.014;2023-05-10T02:55:09;13.67;;;7.10;;
6755;SDS011;3415;51.148;7.014;2023-05-10T02:57:38;14.20;;;5.80;;
6755;SDS011;3415;51.148;7.014;2023-05-10T03:00:09;11.50;;;6.33;;
6755;SDS011;3415;51.148;7.014;2023-05-10T03:02:37;11.27;;;6.00;;
6755;SDS011;3415;51.148;7.014;2023-05-10T03:05:04;14.33;;;6.93;;
6755;SDS011;3415;51.148;7.014;2023-05-10T03:07:31;14.23;;;6.43;;
6755;SDS011;3415;51.148;7.014;2023-05-10T03:09:59;18.13;;;6.30;;
6755;SDS011;3415;51.148;7.014;2023-05-10T03:12:38;13.13;;;6.60;;
6755;SDS011;3415;51.148;7.014;2023-05-10T03:15:17;9.87;;;5.80;;
6755;SDS011;3415;51.148;7.014;2023-05-10T03:17:52;13.97;;;7.37;;
6755;SDS011;3415;51.148;7.014;2023-05-10T03:20:24;13.90;;;6.03;;
6755;SDS011;3415;51.148;7.014;2023-05-10T03:22:55;11.10;;;5.70;;
6755;SDS011;3415;51.148;7.014;2023-05-10T03:25:28;14.60;;;6.70;;
6755;SDS011;3415;51.148;7.014;2023-05-10T03:27:58;11.87;;;7.17;;
6755;SDS011;3415;51.148;7.014;2023-05-10T03:30:27;15.03;;;6.77;;
6755;SDS011;3415;51.148;7.014;2023-05-10T03:32:55;18.07;;;7.37;;
6755;SDS011;3415;51.148;7.014;2023-05-10T03:35:22;16.80;;;7.60;;
6755;SDS011;3415;51.148;7.014;2023-05-10T03:37:50;12.37;;;6.83;;
6755;SDS011;3415;51.148;7.014;2023-05-10T03:40:16;13.53;;;6.57;;
6755;SDS011;3415;51.148;7.014;2023-05-10T03:42:43;17.60;;;6.67;;
6755;SDS011;3415;51.148;7.014;2023-05-10T03:45:11;13.87;;;7.00;;
6755;SDS011;3415;51.148;7.014;2023-05-10T03:47:38;14.63;;;6.97;;
6755;SDS011;3415;51.148;7.014;2023-05-10T03:50:06;12.83;;;7.07;;
6755;SDS011;3415;51.148;7.014;2023-05-10T03:52:33;18.40;;;7.07;;
6755;SDS011;3415;51.148;7.014;2023-05-10T03:55:00;17.40;;;7.70;;
6755;SDS011;3415;51.148;7.014;2023-05-10T03:57:28;17.60;;;7.17;;
6755;SDS011;3415;51.148;7.014;2023-05-10T03:59:55;11.77;;;6.60;;
6755;SDS011;3415;51.148;7.014;2023-05-10T04:02:23;14.63;;;7.60;;
6755;SDS011;3415;51.148;7.014;2023-05-10T04:04:50;15.67;;;6.97;;
6755;SDS011;3415;51.148;7.014;2023-05-10T04:07:17;15.77;;;7.00;;
6755;SDS011;3415;51.148;7.014;2023-05-10T04:09:44;19.50;;;7.53;;
6755;SDS011;3415;51.148;7.014;2023-05-10T04:12:11;11.30;;;6.50;;
6755;SDS011;3415;51.148;7.014;2023-05-10T04:14:37;11.93;;;6.40;;
6755;SDS011;3415;51.148;7.014;2023-05-10T04:17:04;14.10;;;7.80;;
6755;SDS011;3415;51.148;7.014;2023-05-10T04:19:33;13.60;;;7.20;;
6755;SDS011;3415;51.148;7.014;2023-05-10T04:22:00;8.83;;;5.87;;
6755;SDS011;3415;51.148;7.014;2023-05-10T04:24:28;15.23;;;7.27;;
6755;SDS011;3415;51.148;7.014;2023-05-10T04:26:55;12.47;;;7.43;;
6755;SDS011;3415;51.148;7.014;2023-05-10T04:29:21;12.10;;;6.83;;
6755;SDS011;3415;51.148;7.014;2023-05-10T04:31:48;14.53;;;7.27;;
6755;SDS011;3415;51.148;7.014;2023-05-10T04:34:15;17.50;;;7.33;;
6755;SDS011;3415;51.148;7.014;2023-05-10T04:36:44;15.40;;;7.20;;
6755;SDS011;3415;51.148;7.014;2023-05-10T04:39:11;16.53;;;7.43;;
6755;SDS011;3415;51.148;7.014;2023-05-10T04:41:38;13.07;;;7.40;;
6755;SDS011;3415;51.148;7.014;2023-05-10T04:44:05;12.50;;;6.87;;
6755;SDS011;3415;51.148;7.014;2023-05-10T04:46:32;17.37;;;9.37;;
6755;SDS011;3415;51.148;7.014;2023-05-10T04:48:59;16.97;;;7.87;;
6755;SDS011;3415;51.148;7.014;2023-05-10T04:51:26;14.30;;;7.47;;
6755;SDS011;3415;51.148;7.014;2023-05-10T04:53:54;18.90;;;10.13;;
6755;SDS011;3415;51.148;7.014;2023-05-10T04:56:20;20.47;;;9.00;;
6755;SDS011;3415;51.148;7.014;2023-05-10T04:58:48;21.47;;;10.77;;
6755;SDS011;3415;51.148;7.014;2023-05-10T05:01:14;20.20;;;9.80;;
6755;SDS011;3415;51.148;7.014;2023-05-10T05:03:42;22.83;;;11.20;;
6755;SDS011;3415;51.148;7.014;2023-05-10T05:06:08;21.50;;;10.40;;
6755;SDS011;3415;51.148;7.014;2023-05-10T05:08:35;27.40;;;11.73;;
6755;SDS011;3415;51.148;7.014;2023-05-10T05:11:03;25.07;;;11.37;;
6755;SDS011;3415;51.148;7.014;2023-05-10T05:13:30;27.10;;;11.30;;
6755;SDS011;3415;51.148;7.014;2023-05-10T05:15:59;23.93;;;11.70;;
6755;SDS011;3415;51.148;7.014;2023-05-10T05:18:27;22.90;;;10.60;;
6755;SDS011;3415;51.148;7.014;2023-05-10T05:20:54;19.40;;;10.40;;
6755;SDS011;3415;51.148;7.014;2023-05-10T05:23:20;26.40;;;11.27;;
6755;SDS011;3415;51.148;7.014;2023-05-10T05:25:49;26.53;;;11.97;;
6755;SDS011;3415;51.148;7.014;2023-05-10T05:28:19;23.80;;;11.60;;
6755;SDS011;3415;51.148;7.014;2023-05-10T05:30:45;22.83;;;11.63;;
6755;SDS011;3415;51.148;7.014;2023-05-10T05:33:13;25.77;;;11.60;;
6755;SDS011;3415;51.148;7.014;2023-05-10T05:35:40;24.33;;;11.53;;
6755;SDS011;3415;51.148;7.014;2023-05-10T05:38:12;24.93;;;12.20;;
6755;SDS011;3415;51.148;7.014;2023-05-10T05:40:39;21.40;;;10.00;;
6755;SDS011;3415;51.148;7.014;2023-05-10T05:43:06;22.17;;;12.43;;
6755;SDS011;3415;51.148;7.014;2023-05-10T05:45:34;17.47;;;10.23;;
6755;SDS011;3415;51.148;7.014;2023-05-10T05:48:01;16.13;;;8.63;;
6755;SDS011;3415;51.148;7.014;2023-05-10T05:50:28;18.83;;;10.43;;
6755;SDS011;3415;51.148;7.014;2023-05-10T05:52:54;19.87;;;8.97;;
6755;SDS011;3415;51.148;7.014;2023-05-10T05:55:22;18.67;;;10.33;;
6755;SDS011;3415;51.148;7.014;2023-05-10T05:57:50;21.60;;;10.47;;
6755;SDS011;3415;51.148;7.014;2023-05-10T06:00:17;19.17;;;10.27;;
6755;SDS011;3415;51.148;7.014;2023-05-10T06:02:45;17.07;;;9.90;;
6755;SDS011;3415;51.148;7.014;2023-05-10T06:05:12;19.03;;;9.07;;
6755;SDS011;3415;51.148;7.014;2023-05-10T06:07:40;14.67;;;8.70;;
6755;SDS011;3415;51.148;7.014;2023-05-10T06:10:07;19.20;;;9.27;;
6755;SDS011;3415;51.148;7.014;2023-05-10T06:12:34;19.20;;;10.20;;
6755;SDS011;3415;51.148;7.014;2023-05-10T06:15:01;19.50;;;10.10;;
6755;SDS011;3415;51.148;7.014;2023-05-10T06:17:28;16.03;;;9.33;;
6755;SDS011;3415;51.148;7.014;2023-05-10T06:19:56;23.87;;;10.90;;
6755;SDS011;3415;51.148;7.014;2023-05-10T06:22:23;16.60;;;9.97;;
6755;SDS011;3415;51.148;7.014;2023-05-10T06:24:50;18.60;;;9.87;;
6755;SDS011;3415;51.148;7.014;2023-05-10T06:27:16;16.97;;;10.47;;
6755;SDS011;3415;51.148;7.014;2023-05-10T06:29:43;20.07;;;9.30;;
6755;SDS011;3415;51.148;7.014;2023-05-10T06:32:10;19.10;;;10.20;;
6755;SDS011;3415;51.148;7.014;2023-05-10T06:34:37;22.80;;;10.00;;
6755;SDS011;3415;51.148;7.014;2023-05-10T06:37:05;23.83;;;10.53;;
6755;SDS011;3415;51.148;7.014;2023-05-10T06:39:32;21.13;;;10.20;;
6755;SDS011;3415;51.148;7.014;2023-05-10T06:41:58;15.90;;;10.10;;
6755;SDS011;3415;51.148;7.014;2023-05-10T06:44:26;27.10;;;10.40;;
6755;SDS011;3415;51.148;7.014;2023-05-10T06:46:53;22.37;;;10.10;;
6755;SDS011;3415;51.148;7.014;2023-05-10T06:49:20;22.83;;;9.70;;
6755;SDS011;3415;51.148;7.014;2023-05-10T06:51:47;29.83;;;9.63;;
6755;SDS011;3415;51.148;7.014;2023-05-10T06:54:16;19.10;;;9.70;;
6755;SDS011;3415;51.148;7.014;2023-05-10T06:56:43;14.80;;;9.47;;
6755;SDS011;3415;51.148;7.014;2023-05-10T06:59:09;21.17;;;10.70;;
6755;SDS011;3415;51.148;7.014;2023-05-10T07:01:37;22.90;;;10.47;;
6755;SDS011;3415;51.148;7.014;2023-05-10T07:04:04;19.87;;;10.87;;
6755;SDS011;3415;51.148;7.014;2023-05-10T07:06:32;19.30;;;10.53;;
6755;SDS011;3415;51.148;7.014;2023-05-10T07:08:59;23.20;;;10.10;;
6755;SDS011;3415;51.148;7.014;2023-05-10T07:11:27;21.90;;;10.00;;
6755;SDS011;3415;51.148;7.014;2023-05-10T07:13:54;23.60;;;11.13;;
6755;SDS011;3415;51.148;7.014;2023-05-10T07:16:21;21.70;;;10.97;;
6755;SDS011;3415;51.148;7.014;2023-05-10T07:18:48;23.43;;;11.70;;
6755;SDS011;3415;51.148;7.014;2023-05-10T07:21:15;19.43;;;10.37;;
6755;SDS011;3415;51.148;7.014;2023-05-10T07:23:42;25.33;;;10.13;;
6755;SDS011;3415;51.148;7.014;2023-05-10T07:26:09;20.37;;;9.87;;
6755;SDS011;3415;51.148;7.014;2023-05-10T07:28:37;17.73;;;9.60;;
6755;SDS011;3415;51.148;7.014;2023-05-10T07:31:05;32.17;;;11.60;;
6755;SDS011;3415;51.148;7.014;2023-05-10T07:33:32;22.30;;;11.33;;
6755;SDS011;3415;51.148;7.014;2023-05-10T07:35:59;22.70;;;9.40;;
6755;SDS011;3415;51.148;7.014;2023-05-10T07:38:26;29.27;;;10.87;;
6755;SDS011;3415;51.148;7.014;2023-05-10T07:40:53;19.70;;;9.50;;
6755;SDS011;3415;51.148;7.014;2023-05-10T07:43:20;20.73;;;10.03;;
6755;SDS011;3415;51.148;7.014;2023-05-10T07:45:48;22.83;;;10.73;;
6755;SDS011;3415;51.148;7.014;2023-05-10T07:48:15;24.13;;;10.13;;
6755;SDS011;3415;51.148;7.014;2023-05-10T07:50:41;21.67;;;9.63;;
6755;SDS011;3415;51.148;7.014;2023-05-10T07:53:09;33.03;;;11.87;;
6755;SDS011;3415;51.148;7.014;2023-05-10T07:55:36;22.80;;;10.53;;
6755;SDS011;3415;51.148;7.014;2023-05-10T07:58:02;25.97;;;10.77;;
6755;SDS011;3415;51.148;7.014;2023-05-10T08:00:29;18.10;;;9.40;;
6755;SDS011;3415;51.148;7.014;2023-05-10T08:02:57;23.33;;;9.20;;
6755;SDS011;3415;51.148;7.014;2023-05-10T08:05:24;19.00;;;8.77;;
6755;SDS011;3415;51.148;7.014;2023-05-10T08:07:51;17.13;;;8.50;;
6755;SDS011;3415;51.148;7.014;2023-05-10T08:10:18;21.63;;;9.30;;
6755;SDS011;3415;51.148;7.014;2023-05-10T08:12:45;20.10;;;10.33;;
6755;SDS011;3415;51.148;7.014;2023-05-10T08:15:12;26.37;;;10.17;;
6755;SDS011;3415;51.148;7.014;2023-05-10T08:17:39;23.93;;;9.30;;
6755;SDS011;3415;51.148;7.014;2023-05-10T08:20:07;19.10;;;8.83;;
6755;SDS011;3415;51.148;7.014;2023-05-10T08:22:35;28.40;;;10.13;;
6755;SDS011;3415;51.148;7.014;2023-05-10T08:25:02;22.20;;;10.13;;
6755;SDS011;3415;51.148;7.014;2023-05-10T08:27:30;16.57;;;8.53;;
6755;SDS011;3415;51.148;7.014;2023-05-10T08:29:57;18.93;;;9.20;;
6755;SDS011;3415;51.148;7.014;2023-05-10T08:32:23;18.53;;;8.60;;
6755;SDS011;3415;51.148;7.014;2023-05-10T08:34:50;17.00;;;8.13;;
6755;SDS011;3415;51.148;7.014;2023-05-10T08:37:19;22.43;;;9.30;;
6755;SDS011;3415;51.148;7.014;2023-05-10T08:39:45;23.20;;;9.20;;
6755;SDS011;3415;51.148;7.014;2023-05-10T08:42:13;16.90;;;8.50;;
6755;SDS011;3415;51.148;7.014;2023-05-10T08:44:47;17.80;;;8.50;;
6755;SDS011;3415;51.148;7.014;2023-05-10T08:47:15;16.93;;;8.47;;
6755;SDS011;3415;51.148;7.014;2023-05-10T08:49:44;19.57;;;9.37;;
6755;SDS011;3415;51.148;7.014;2023-05-10T08:52:16;23.50;;;8.67;;
6755;SDS011;3415;51.148;7.014;2023-05-10T08:54:47;24.10;;;9.77;;
6755;SDS011;3415;51.148;7.014;2023-05-10T08:57:17;20.13;;;9.97;;
6755;SDS011;3415;51.148;7.014;2023-05-10T08:59:45;22.20;;;9.80;;
6755;SDS011;3415;51.148;7.014;2023-05-10T09:02:12;29.37;;;13.40;;
6755;SDS011;3415;51.148;7.014;2023-05-10T09:04:42;27.10;;;11.60;;
6755;SDS011;3415;51.148;7.014;2023-05-10T09:07:10;28.07;;;12.37;;
6755;SDS011;3415;51.148;7.014;2023-05-10T09:09:40;33.27;;;13.30;;
6755;SDS011;3415;51.148;7.014;2023-05-10T09:12:11;27.37;;;12.50;;
6755;SDS011;3415;51.148;7.014;2023-05-10T09:14:40;29.37;;;11.73;;
6755;SDS011;3415;51.148;7.014;2023-05-10T09:17:10;29.40;;;12.53;;
6755;SDS011;3415;51.148;7.014;2023-05-10T09:19:37;26.60;;;12.20;;
6755;SDS011;3415;51.148;7.014;2023-05-10T09:22:04;35.20;;;14.20;;
6755;SDS011;3415;51.148;7.014;2023-05-10T09:24:31;34.70;;;12.27;;
6755;SDS011;3415;51.148;7.014;2023-05-10T09:26:59;28.20;;;13.73;;
6755;SDS011;3415;51.148;7.014;2023-05-10T09:29:38;31.80;;;13.40;;
6755;SDS011;3415;51.148;7.014;2023-05-10T09:32:06;35.63;;;14.83;;
6755;SDS011;3415;51.148;7.014;2023-05-10T09:34:32;36.97;;;14.47;;
6755;SDS011;3415;51.148;7.014;2023-05-10T09:37:01;36.73;;;15.60;;
6755;SDS011;3415;51.148;7.014;2023-05-10T09:39:32;30.50;;;13.90;;
6755;SDS011;3415;51.148;7.014;2023-05-10T09:42:02;32.30;;;13.70;;
6755;SDS011;3415;51.148;7.014;2023-05-10T09:44:30;39.07;;;14.70;;
6755;SDS011;3415;51.148;7.014;2023-05-10T09:46:57;33.90;;;13.17;;
6755;SDS011;3415;51.148;7.014;2023-05-10T09:49:24;33.90;;;14.47;;
6755;SDS011;3415;51.148;7.014;2023-05-10T09:52:00;35.43;;;13.87;;
6755;SDS011;3415;51.148;7.014;2023-05-10T09:54:28;27.03;;;12.10;;
6755;SDS011;3415;51.148;7.014;2023-05-10T09:56:55;29.53;;;13.77;;
6755;SDS011;3415;51.148;7.014;2023-05-10T09:59:24;31.03;;;14.10;;
6755;SDS011;3415;51.148;7.014;2023-05-10T10:01:52;29.97;;;13.13;;
6755;SDS011;3415;51.148;7.014;2023-05-10T10:04:21;31.93;;;14.40;;
6755;SDS011;3415;51.148;7.014;2023-05-10T10:06:58;30.30;;;13.57;;
6755;SDS011;3415;51.148;7.014;2023-05-10T10:09:25;33.90;;;14.67;;
6755;SDS011;3415;51.148;7.014;2023-05-10T10:11:53;32.43;;;14.40;;
6755;SDS011;3415;51.148;7.014;2023-05-10T10:14:21;31.53;;;14.63;;
6755;SDS011;3415;51.148;7.014;2023-05-10T10:16:50;37.93;;;14.27;;
6755;SDS011;3415;51.148;7.014;2023-05-10T10:19:17;31.50;;;14.20;;
6755;SDS011;3415;51.148;7.014;2023-05-10T10:21:44;33.10;;;13.57;;
6755;SDS011;3415;51.148;7.014;2023-05-10T10:24:11;34.10;;;13.60;;
6755;SDS011;3415;51.148;7.014;2023-05-10T10:26:38;26.30;;;11.83;;
6755;SDS011;3415;51.148;7.014;2023-05-10T10:29:10;30.10;;;14.23;;
6755;SDS011;3415;51.148;7.014;2023-05-10T10:31:46;33.90;;;13.73;;
6755;SDS011;3415;51.148;7.014;2023-05-10T10:34:21;28.73;;;12.40;;
6755;SDS011;3415;51.148;7.014;2023-05-10T10:36:53;21.13;;;11.13;;
6755;SDS011;3415;51.148;7.014;2023-05-10T10:39:21;22.00;;;9.90;;
6755;SDS011;3415;51.148;7.014;2023-05-10T10:41:50;23.40;;;11.90;;
6755;SDS011;3415;51.148;7.014;2023-05-10T10:44:25;18.60;;;10.50;;
6755;SDS011;3415;51.148;7.014;2023-05-10T10:47:06;18.30;;;10.03;;
6755;SDS011;3415;51.148;7.014;2023-05-10T10:49:49;20.90;;;10.90;;
6755;SDS011;3415;51.148;7.014;2023-05-10T10:52:21;23.30;;;10.47;;
6755;SDS011;3415;51.148;7.014;2023-05-10T10:54:52;20.50;;;11.10;;
6755;SDS011;3415;51.148;7.014;2023-05-10T10:57:24;18.63;;;9.53;;
6755;SDS011;3415;51.148;7.014;2023-05-10T10:59:53;27.77;;;10.37;;
6755;SDS011;3415;51.148;7.014;2023-05-10T11:02:42;27.27;;;10.60;;
6755;SDS011;3415;51.148;7.014;2023-05-10T11:05:32;18.70;;;9.90;;
6755;SDS011;3415;51.148;7.014;2023-05-10T11:08:08;15.50;;;9.07;;
6755;SDS011;3415;51.148;7.014;2023-05-10T11:10:40;18.07;;;10.00;;
6755;SDS011;3415;51.148;7.014;2023-05-10T11:13:16;19.30;;;9.50;;
6755;SDS011;3415;51.148;7.014;2023-05-10T11:15:54;18.43;;;9.60;;
6755;SDS011;3415;51.148;7.014;2023-05-10T11:18:23;18.50;;;10.30;;
6755;SDS011;3415;51.148;7.014;2023-05-10T11:20:55;15.07;;;9.20;;
6755;SDS011;3415;51.148;7.014;2023-05-10T11:23:23;16.83;;;9.50;;
6755;SDS011;3415;51.148;7.014;2023-05-10T11:25:55;18.20;;;9.93;;
6755;SDS011;3415;51.148;7.014;2023-05-10T11:28:22;16.27;;;9.07;;
6755;SDS011;3415;51.148;7.014;2023-05-10T11:30:49;19.70;;;9.90;;
6755;SDS011;3415;51.148;7.014;2023-05-10T11:33:17;19.87;;;9.93;;
6755;SDS011;3415;51.148;7.014;2023-05-10T11:35:45;19.43;;;9.80;;
6755;SDS011;3415;51.148;7.014;2023-05-10T11:38:14;22.90;;;10.60;;
6755;SDS011;3415;51.148;7.014;2023-05-10T11:40:41;18.33;;;10.13;;
6755;SDS011;3415;51.148;7.014;2023-05-10T11:43:08;17.80;;;9.63;;
6755;SDS011;3415;51.148;7.014;2023-05-10T11:45:36;16.90;;;8.83;;
6755;SDS011;3415;51.148;7.014;2023-05-10T11:48:03;16.50;;;9.40;;
6755;SDS011;3415;51.148;7.014;2023-05-10T11:50:30;20.23;;;9.97;;
6755;SDS011;3415;51.148;7.014;2023-05-10T11:52:57;17.60;;;8.80;;
6755;SDS011;3415;51.148;7.014;2023-05-10T11:55:26;17.77;;;9.67;;
6755;SDS011;3415;51.148;7.014;2023-05-10T11:57:55;20.50;;;9.77;;
6755;SDS011;3415;51.148;7.014;2023-05-10T12:00:26;16.90;;;8.30;;
6755;SDS011;3415;51.148;7.014;2023-05-10T12:02:53;13.80;;;8.47;;
6755;SDS011;3415;51.148;7.014;2023-05-10T12:05:19;15.90;;;8.00;;
6755;SDS011;3415;51.148;7.014;2023-05-10T12:07:47;15.23;;;9.03;;
6755;SDS011;3415;51.148;7.014;2023-05-10T12:10:14;12.27;;;7.33;;
6755;SDS011;3415;51.148;7.014;2023-05-10T12:12:44;20.00;;;9.80;;
6755;SDS011;3415;51.148;7.014;2023-05-10T12:15:12;22.00;;;8.70;;
6755;SDS011;3415;51.148;7.014;2023-05-10T12:17:44;14.33;;;8.50;;
6755;SDS011;3415;51.148;7.014;2023-05-10T12:20:14;15.13;;;8.83;;
6755;SDS011;3415;51.148;7.014;2023-05-10T12:22:43;17.00;;;9.60;;
6755;SDS011;3415;51.148;7.014;2023-05-10T12:25:11;19.37;;;9.60;;
6755;SDS011;3415;51.148;7.014;2023-05-10T12:27:38;20.03;;;9.70;;
6755;SDS011;3415;51.148;7.014;2023-05-10T12:30:07;16.80;;;7.90;;
6755;SDS011;3415;51.148;7.014;2023-05-10T12:32:38;17.07;;;9.67;;
6755;SDS011;3415;51.148;7.014;2023-05-10T12:35:06;13.90;;;8.33;;
6755;SDS011;3415;51.148;7.014;2023-05-10T12:37:34;16.80;;;8.50;;
6755;SDS011;3415;51.148;7.014;2023-05-10T12:40:05;16.53;;;8.37;;
6755;SDS011;3415;51.148;7.014;2023-05-10T12:42:33;17.00;;;8.10;;
6755;SDS011;3415;51.148;7.014;2023-05-10T12:45:00;22.30;;;8.40;;
6755;SDS011;3415;51.148;7.014;2023-05-10T12:47:28;19.87;;;9.10;;
6755;SDS011;3415;51.148;7.014;2023-05-10T12:49:56;17.27;;;8.93;;
6755;SDS011;3415;51.148;7.014;2023-05-10T12:52:23;16.67;;;8.97;;
6755;SDS011;3415;51.148;7.014;2023-05-10T12:54:51;15.20;;;8.47;;
6755;SDS011;3415;51.148;7.014;2023-05-10T12:57:18;15.30;;;7.40;;
6755;SDS011;3415;51.148;7.014;2023-05-10T12:59:45;16.33;;;9.03;;
6755;SDS011;3415;51.148;7.014;2023-05-10T13:02:11;17.10;;;9.37;;
6755;SDS011;3415;51.148;7.014;2023-05-10T13:04:41;15.50;;;7.90;;
6755;SDS011;3415;51.148;7.014;2023-05-10T13:07:08;13.30;;;7.00;;
6755;SDS011;3415;51.148;7.014;2023-05-10T13:09:35;16.17;;;8.33;;
6755;SDS011;3415;51.148;7.014;2023-05-10T13:12:02;15.50;;;8.73;;
6755;SDS011;3415;51.148;7.014;2023-05-10T13:14:29;15.53;;;8.40;;
6755;SDS011;3415;51.148;7.014;2023-05-10T13:16:56;15.40;;;8.50;;
6755;SDS011;3415;51.148;7.014;2023-05-10T13:19:22;12.80;;;8.13;;
6755;SDS011;3415;51.148;7.014;2023-05-10T13:21:51;15.43;;;9.57;;
6755;SDS011;3415;51.148;7.014;2023-05-10T13:24:18;17.70;;;9.60;;
6755;SDS011;3415;51.148;7.014;2023-05-10T13:26:44;18.30;;;9.17;;
6755;SDS011;3415;51.148;7.014;2023-05-10T13:29:11;15.73;;;9.30;;
6755;SDS011;3415;51.148;7.014;2023-05-10T13:31:38;18.33;;;10.80;;
6755;SDS011;3415;51.148;7.014;2023-05-10T13:34:05;18.23;;;9.90;;
6755;SDS011;3415;51.148;7.014;2023-05-10T13:36:32;16.30;;;10.87;;
6755;SDS011;3415;51.148;7.014;2023-05-10T13:39:00;21.00;;;11.17;;
6755;SDS011;3415;51.148;7.014;2023-05-10T13:41:28;22.53;;;11.07;;
6755;SDS011;3415;51.148;7.014;2023-05-10T13:43:55;24.73;;;11.57;;
6755;SDS011;3415;51.148;7.014;2023-05-10T13:46:22;23.10;;;10.90;;
6755;SDS011;3415;51.148;7.014;2023-05-10T13:48:48;20.87;;;11.27;;
6755;SDS011;3415;51.148;7.014;2023-05-10T13:51:15;22.70;;;11.70;;
6755;SDS011;3415;51.148;7.014;2023-05-10T13:53:42;21.20;;;11.20;;
6755;SDS011;3415;51.148;7.014;2023-05-10T13:56:10;21.70;;;10.67;;
6755;SDS011;3415;51.148;7.014;2023-05-10T13:58:37;23.20;;;12.40;;
6755;SDS011;3415;51.148;7.014;2023-05-10T14:01:04;22.63;;;11.23;;
6755;SDS011;3415;51.148;7.014;2023-05-10T14:03:31;20.60;;;11.20;;
6755;SDS011;3415;51.148;7.014;2023-05-10T14:05:58;25.00;;;11.60;;
6755;SDS011;3415;51.148;7.014;2023-05-10T14:08:25;21.87;;;12.03;;
6755;SDS011;3415;51.148;7.014;2023-05-10T14:10:53;22.10;;;12.30;;
6755;SDS011;3415;51.148;7.014;2023-05-10T14:13:23;19.37;;;10.67;;
6755;SDS011;3415;51.148;7.014;2023-05-10T14:15:50;23.07;;;11.53;;
6755;SDS011;3415;51.148;7.014;2023-05-10T14:18:20;17.60;;;10.37;;
6755;SDS011;3415;51.148;7.014;2023-05-10T14:20:47;19.00;;;11.10;;
6755;SDS011;3415;51.148;7.014;2023-05-10T14:23:13;19.60;;;9.20;;
6755;SDS011;3415;51.148;7.014;2023-05-10T14:25:40;16.33;;;9.10;;
6755;SDS011;3415;51.148;7.014;2023-05-10T14:28:07;17.07;;;10.50;;
6755;SDS011;3415;51.148;7.014;2023-05-10T14:30:35;16.53;;;9.47;;
6755;SDS011;3415;51.148;7.014;2023-05-10T14:33:02;16.93;;;9.10;;
6755;SDS011;3415;51.148;7.014;2023-05-10T14:35:29;15.00;;;8.37;;
6755;SDS011;3415;51.148;7.014;2023-05-10T14:37:57;16.50;;;9.00;;
6755;SDS011;3415;51.148;7.014;2023-05-10T14:40:23;18.00;;;8.40;;
6755;SDS011;3415;51.148;7.014;2023-05-10T14:42:51;24.50;;;11.90;;
6755;SDS011;3415;51.148;7.014;2023-05-10T14:45:18;14.63;;;7.63;;
6755;SDS011;3415;51.148;7.014;2023-05-10T14:47:46;22.27;;;9.40;;
6755;SDS011;3415;51.148;7.014;2023-05-10T14:50:13;14.30;;;8.27;;
6755;SDS011;3415;51.148;7.014;2023-05-10T14:52:41;14.97;;;7.93;;
6755;SDS011;3415;51.148;7.014;2023-05-10T14:55:08;16.80;;;8.87;;
6755;SDS011;3415;51.148;7.014;2023-05-10T14:57:35;14.70;;;7.50;;
6755;SDS011;3415;51.148;7.014;2023-05-10T15:00:02;11.43;;;7.50;;
6755;SDS011;3415;51.148;7.014;2023-05-10T15:02:30;13.80;;;7.50;;
6755;SDS011;3415;51.148;7.014;2023-05-10T15:04:58;9.23;;;5.53;;
6755;SDS011;3415;51.148;7.014;2023-05-10T15:07:25;6.90;;;4.90;;
6755;SDS011;3415;51.148;7.014;2023-05-10T15:09:52;12.90;;;5.37;;
6755;SDS011;3415;51.148;7.014;2023-05-10T15:12:19;6.43;;;4.80;;